createdAt,value
2018-06-23T00:00:55.302Z,13.17
2018-06-23T00:03:24.002Z,13.17
2018-06-23T00:05:52.767Z,13.23
2018-06-23T00:08:21.483Z,13.30
2018-06-23T00:10:50.277Z,13.25
2018-06-23T00:13:18.986Z,13.18
2018-06-23T00:15:48.362Z,13.16
2018-06-23T00:18:17.162Z,13.21
2018-06-23T00:20:45.910Z,13.12
2018-06-23T00:23:14.639Z,13.17
2018-06-23T00:25:48.543Z,13.18
2018-06-23T00:28:17.306Z,13.15
2018-06-23T00:30:46.011Z,13.10
2018-06-23T00:33:14.747Z,13.16
2018-06-23T00:35:43.490Z,13.14
2018-06-23T00:38:12.466Z,13.08
2018-06-23T00:40:41.219Z,13.08
2018-06-23T00:43:09.958Z,13.10
2018-06-23T00:45:38.657Z,13.07
2018-06-23T00:48:07.442Z,13.07
2018-06-23T00:50:36.190Z,13.10
2018-06-23T00:53:04.902Z,13.11
2018-06-23T00:55:33.699Z,13.09
2018-06-23T00:58:02.436Z,13.10
2018-06-23T01:00:31.212Z,13.07
2018-06-23T01:02:59.946Z,13.09
2018-06-23T01:05:28.651Z,13.13
2018-06-23T01:07:57.383Z,13.11
2018-06-23T01:10:26.096Z,13.08
2018-06-23T01:12:54.814Z,13.06
2018-06-23T01:15:23.545Z,12.96
2018-06-23T01:17:52.286Z,12.88
2018-06-23T01:20:21.033Z,12.83
2018-06-23T01:22:49.753Z,12.84
2018-06-23T01:25:18.533Z,12.80
2018-06-23T01:27:47.220Z,12.75
2018-06-23T01:30:15.914Z,12.71
2018-06-23T01:32:44.632Z,12.71
2018-06-23T01:35:13.364Z,12.64
2018-06-23T01:37:42.070Z,12.68
2018-06-23T01:40:10.809Z,12.62
2018-06-23T01:42:39.593Z,12.59
2018-06-23T01:45:08.363Z,12.66
2018-06-23T01:47:37.188Z,12.65
2018-06-23T01:50:05.942Z,12.67
2018-06-23T01:52:34.694Z,12.67
2018-06-23T01:55:03.394Z,12.71
2018-06-23T01:57:32.164Z,12.66
2018-06-23T02:00:00.970Z,12.68
2018-06-23T02:02:29.646Z,12.70
2018-06-23T02:04:58.341Z,12.62
2018-06-23T02:07:27.114Z,12.62
2018-06-23T02:09:55.859Z,12.71
2018-06-23T02:12:24.558Z,12.71
2018-06-23T02:14:58.715Z,12.66
2018-06-23T02:17:32.651Z,12.65
2018-06-23T02:20:06.495Z,12.78
2018-06-23T02:22:40.288Z,12.80
2018-06-23T02:25:14.126Z,12.86
2018-06-23T02:27:48.056Z,12.88
2018-06-23T02:30:21.821Z,12.90
2018-06-23T02:32:53.154Z,12.98
2018-06-23T02:35:22.194Z,13.04
2018-06-23T02:37:50.982Z,13.09
2018-06-23T02:40:19.703Z,13.01
2018-06-23T02:42:48.465Z,12.96
2018-06-23T02:45:17.247Z,12.83
2018-06-23T02:47:45.938Z,12.87
2018-06-23T02:50:14.660Z,12.88
2018-06-23T02:52:43.791Z,13.03
2018-06-23T02:55:12.507Z,13.08
2018-06-23T02:57:41.276Z,13.07
2018-06-23T03:00:10.103Z,13.13
2018-06-23T03:02:39.594Z,13.16
2018-06-23T03:05:08.327Z,13.22
2018-06-23T03:07:37.047Z,13.23
2018-06-23T03:10:05.888Z,13.30
2018-06-23T03:12:35.392Z,13.23
2018-06-23T03:15:04.195Z,13.29
2018-06-23T03:17:32.926Z,13.33
2018-06-23T03:20:01.628Z,13.29
2018-06-23T03:22:30.361Z,13.29
2018-06-23T03:24:59.098Z,13.33
2018-06-23T03:27:27.803Z,13.31
2018-06-23T03:29:56.559Z,13.29
2018-06-23T03:32:25.248Z,13.45
2018-06-23T03:34:53.970Z,13.42
2018-06-23T03:37:22.727Z,13.51
2018-06-23T03:39:51.444Z,13.58
2018-06-23T03:42:21.798Z,13.54
2018-06-23T03:44:50.540Z,13.53
2018-06-23T03:47:19.335Z,13.53
2018-06-23T03:49:48.227Z,13.54
2018-06-23T03:52:20.160Z,13.52
2018-06-23T03:54:49.172Z,13.38
2018-06-23T03:57:17.891Z,13.43
2018-06-23T03:59:46.684Z,13.47
2018-06-23T04:02:15.434Z,13.33
2018-06-23T04:04:44.184Z,13.31
2018-06-23T04:07:12.908Z,13.34
2018-06-23T04:09:41.636Z,13.33
2018-06-23T04:12:10.403Z,13.28
2018-06-23T04:14:39.126Z,13.15
2018-06-23T04:17:07.860Z,13.22
2018-06-23T04:19:36.616Z,13.24
2018-06-23T04:22:05.475Z,13.26
2018-06-23T04:24:34.168Z,13.21
2018-06-23T04:27:02.953Z,13.21
2018-06-23T04:29:31.715Z,13.36
2018-06-23T04:32:00.466Z,13.30
2018-06-23T04:34:29.286Z,13.36
2018-06-23T04:36:58.022Z,13.60
2018-06-23T04:39:26.754Z,13.57
2018-06-23T04:41:56.354Z,13.62
2018-06-23T04:44:25.118Z,13.69
2018-06-23T04:46:53.946Z,13.62
2018-06-23T04:49:22.647Z,13.54
2018-06-23T04:51:51.601Z,13.65
2018-06-23T04:54:20.353Z,13.65
2018-06-23T04:56:49.110Z,13.69
2018-06-23T04:59:17.870Z,13.70
2018-06-23T05:01:46.590Z,13.79
2018-06-23T05:04:15.479Z,13.74
2018-06-23T05:06:45.433Z,13.84
2018-06-23T05:09:14.167Z,13.78
2018-06-23T05:11:42.952Z,13.74
2018-06-23T05:14:11.755Z,13.76
2018-06-23T05:16:40.574Z,13.69
2018-06-23T05:19:14.028Z,13.58
2018-06-23T05:21:42.834Z,13.54
2018-06-23T05:24:11.645Z,13.65
2018-06-23T05:26:40.489Z,13.65
2018-06-23T05:29:10.435Z,13.75
2018-06-23T05:31:39.235Z,13.94
2018-06-23T05:34:08.035Z,14.16
2018-06-23T05:36:36.851Z,14.04
2018-06-23T05:39:11.059Z,14.23
2018-06-23T05:41:40.064Z,14.31
2018-06-23T05:44:08.824Z,14.38
2018-06-23T05:46:37.563Z,14.31
2018-06-23T05:49:06.343Z,14.10
2018-06-23T05:51:35.604Z,14.23
2018-06-23T05:54:04.391Z,14.43
2018-06-23T05:56:33.211Z,14.83
2018-06-23T05:59:01.963Z,15.09
2018-06-23T06:01:30.870Z,15.15
2018-06-23T06:03:59.717Z,15.50
2018-06-23T06:06:31.028Z,15.95
2018-06-23T06:08:59.807Z,15.64
2018-06-23T06:11:28.544Z,15.50
2018-06-23T06:13:57.341Z,15.44
2018-06-23T06:16:32.977Z,15.47
2018-06-23T06:19:01.722Z,15.19
2018-06-23T06:21:30.460Z,15.43
2018-06-23T06:23:59.236Z,15.66
2018-06-23T06:26:28.120Z,15.78
2018-06-23T06:28:56.952Z,15.76
2018-06-23T06:31:25.823Z,15.59
2018-06-23T06:33:54.611Z,15.68
2018-06-23T06:36:23.370Z,15.73
2018-06-23T06:38:52.063Z,15.77
2018-06-23T06:41:20.770Z,15.70
2018-06-23T06:43:49.448Z,15.97
2018-06-23T06:46:18.151Z,15.93
2018-06-23T06:48:46.871Z,15.74
2018-06-23T06:51:15.548Z,15.56
2018-06-23T06:53:44.301Z,15.45
2018-06-23T06:56:13.020Z,15.43
2018-06-23T06:58:41.715Z,15.81
2018-06-23T07:01:10.382Z,16.05
2018-06-23T07:03:39.084Z,15.85
2018-06-23T07:06:07.833Z,15.89
2018-06-23T07:08:36.509Z,15.72
2018-06-23T07:11:05.210Z,15.66
2018-06-23T07:13:33.958Z,15.74
2018-06-23T07:16:02.755Z,15.90
2018-06-23T07:18:31.484Z,16.14
2018-06-23T07:21:00.201Z,15.88
2018-06-23T07:23:28.976Z,15.63
2018-06-23T07:25:57.677Z,15.70
2018-06-23T07:28:26.375Z,16.01
2018-06-23T07:30:55.240Z,16.25
2018-06-23T07:33:24.590Z,16.69
2018-06-23T07:35:53.283Z,17.31
2018-06-23T07:38:22.010Z,17.47
2018-06-23T07:40:50.696Z,17.20
2018-06-23T07:43:19.435Z,16.83
2018-06-23T07:45:48.171Z,16.89
2018-06-23T07:48:16.859Z,17.02
2018-06-23T07:50:45.883Z,16.69
2018-06-23T07:53:14.655Z,16.49
2018-06-23T07:55:43.360Z,16.55
2018-06-23T07:58:12.071Z,16.32
2018-06-23T08:00:40.765Z,16.08
2018-06-23T08:03:09.537Z,16.04
2018-06-23T08:05:39.420Z,16.00
2018-06-23T08:08:08.257Z,16.19
2018-06-23T08:10:37.607Z,16.17
2018-06-23T08:13:06.567Z,15.89
2018-06-23T08:15:35.398Z,15.85
2018-06-23T08:18:04.153Z,15.66
2018-06-23T08:20:32.864Z,15.56
2018-06-23T08:23:01.571Z,15.67
2018-06-23T08:25:30.281Z,15.77
2018-06-23T08:27:58.958Z,15.82
2018-06-23T08:30:27.678Z,15.85
2018-06-23T08:32:56.411Z,15.85
2018-06-23T08:35:25.094Z,15.84
2018-06-23T08:37:53.953Z,15.82
2018-06-23T08:40:22.590Z,15.88
2018-06-23T08:42:51.286Z,15.86
2018-06-23T08:45:20.135Z,15.93
2018-06-23T08:47:48.913Z,15.95
2018-06-23T08:50:22.296Z,15.85
2018-06-23T08:52:51.384Z,15.89
2018-06-23T08:55:21.408Z,15.93
2018-06-23T08:57:50.488Z,15.94
2018-06-23T09:00:19.522Z,16.16
2018-06-23T09:02:48.273Z,15.98
2018-06-23T09:05:17.925Z,15.97
2018-06-23T09:07:46.833Z,15.93
2018-06-23T09:10:15.695Z,15.78
2018-06-23T09:12:44.569Z,15.84
2018-06-23T09:15:13.807Z,15.68
2018-06-23T09:17:42.696Z,15.63
2018-06-23T09:20:11.508Z,15.78
2018-06-23T09:22:40.266Z,15.76
2018-06-23T09:25:09.073Z,15.79
2018-06-23T09:27:37.832Z,15.95
2018-06-23T09:30:07.301Z,16.19
2018-06-23T09:32:36.063Z,16.70
2018-06-23T09:35:04.821Z,16.67
2018-06-23T09:37:33.602Z,16.91
2018-06-23T09:40:04.267Z,16.76
2018-06-23T09:42:33.093Z,16.79
2018-06-23T09:45:01.901Z,16.96
2018-06-23T09:47:30.634Z,16.89
2018-06-23T09:49:59.493Z,17.07
2018-06-23T09:52:28.281Z,17.26
2018-06-23T09:54:57.043Z,17.10
2018-06-23T09:57:25.787Z,17.32
2018-06-23T09:59:54.542Z,17.63
2018-06-23T10:02:23.315Z,18.13
2018-06-23T10:04:52.042Z,17.67
2018-06-23T10:07:20.822Z,17.51
2018-06-23T10:09:49.608Z,17.39
2018-06-23T10:12:18.444Z,17.38
2018-06-23T10:14:47.237Z,17.69
2018-06-23T10:17:16.294Z,17.91
2018-06-23T10:19:45.016Z,18.50
2018-06-23T10:22:14.777Z,18.87
2018-06-23T10:24:43.663Z,18.73
2018-06-23T10:27:12.749Z,18.69
2018-06-23T10:29:41.468Z,18.80
2018-06-23T10:32:12.118Z,18.49
2018-06-23T10:34:41.880Z,18.13
2018-06-23T10:37:11.300Z,17.65
2018-06-23T10:39:40.056Z,17.67
2018-06-23T10:42:09.535Z,17.82
2018-06-23T10:44:38.399Z,17.80
2018-06-23T10:47:07.244Z,17.99
2018-06-23T10:49:36.141Z,17.67
2018-06-23T10:52:05.055Z,17.90
2018-06-23T10:54:33.839Z,17.82
2018-06-23T10:57:02.607Z,18.37
2018-06-23T10:59:31.422Z,18.77
2018-06-23T11:02:00.274Z,18.30
2018-06-23T11:04:29.014Z,18.06
2018-06-23T11:06:57.823Z,17.91
2018-06-23T11:09:28.310Z,17.89
2018-06-23T11:11:57.196Z,18.30
2018-06-23T11:14:25.931Z,18.66
2018-06-23T11:16:54.729Z,19.01
2018-06-23T11:19:23.470Z,19.08
2018-06-23T11:21:52.251Z,19.36
2018-06-23T11:24:21.084Z,19.01
2018-06-23T11:26:49.925Z,18.85
2018-06-23T11:29:18.686Z,18.60
2018-06-23T11:31:47.429Z,18.12
2018-06-23T11:34:16.242Z,18.06
2018-06-23T11:39:22.845Z,18.13
2018-06-23T11:41:52.021Z,18.33
2018-06-23T11:44:20.804Z,18.70
2018-06-23T11:46:49.614Z,18.62
2018-06-23T11:49:18.379Z,18.41
2018-06-23T11:51:47.139Z,18.03
2018-06-23T11:54:15.881Z,17.98
2018-06-23T11:56:44.675Z,18.25
2018-06-23T11:59:13.455Z,18.86
2018-06-23T12:01:42.235Z,19.94
2018-06-23T12:04:11.023Z,20.02
2018-06-23T12:06:39.848Z,19.61
2018-06-23T12:09:09.268Z,19.12
2018-06-23T12:11:38.016Z,18.78
2018-06-23T12:14:06.815Z,18.53
2018-06-23T12:16:35.552Z,18.59
2018-06-23T12:19:04.314Z,18.52
2018-06-23T12:21:33.102Z,18.59
2018-06-23T12:24:01.904Z,18.66
2018-06-23T12:26:31.270Z,18.54
2018-06-23T12:29:00.036Z,18.33
2018-06-23T12:31:28.839Z,18.42
2018-06-23T12:33:59.065Z,17.99
2018-06-23T12:36:27.846Z,18.02
2018-06-23T12:38:56.681Z,18.11
2018-06-23T12:41:25.501Z,18.23
2018-06-23T12:43:54.207Z,18.52
2018-06-23T12:46:24.518Z,18.58
2018-06-23T12:48:53.278Z,19.33
2018-06-23T12:51:22.039Z,19.55
2018-06-23T12:53:50.872Z,20.23
2018-06-23T12:56:19.758Z,20.64
2018-06-23T12:58:48.579Z,20.64
2018-06-23T13:01:17.430Z,21.52
2018-06-23T13:03:46.223Z,21.76
2018-06-23T13:06:14.969Z,21.50
2018-06-23T13:08:43.690Z,20.68
2018-06-23T13:11:12.459Z,21.07
2018-06-23T13:13:41.393Z,21.53
2018-06-23T13:16:10.186Z,21.05
2018-06-23T13:18:38.918Z,21.58
2018-06-23T13:21:07.706Z,21.66
2018-06-23T13:23:37.013Z,21.56
2018-06-23T13:26:05.976Z,21.86
2018-06-23T13:28:34.722Z,22.09
2018-06-23T13:31:03.573Z,22.43
2018-06-23T13:33:32.414Z,22.50
2018-06-23T13:36:01.201Z,22.16
2018-06-23T13:38:29.956Z,21.55
2018-06-23T13:41:02.887Z,21.32
2018-06-23T13:43:31.727Z,21.35
2018-06-23T13:46:00.506Z,21.13
2018-06-23T13:48:29.229Z,21.17
2018-06-23T13:50:58.698Z,21.59
2018-06-23T13:53:27.484Z,21.67
2018-06-23T13:55:56.487Z,21.82
2018-06-23T13:58:25.352Z,21.50
2018-06-23T14:00:54.327Z,21.30
2018-06-23T14:03:23.377Z,20.66
2018-06-23T14:05:52.046Z,20.48
2018-06-23T14:08:21.003Z,20.89
2018-06-23T14:10:49.777Z,21.00
2018-06-23T14:13:18.527Z,21.59
2018-06-23T14:15:47.303Z,21.92
2018-06-23T14:18:16.028Z,22.03
2018-06-23T14:23:18.726Z,21.79
2018-06-23T14:25:47.487Z,21.70
2018-06-23T14:28:16.166Z,22.62
2018-06-23T14:30:44.958Z,23.76
2018-06-23T14:33:13.695Z,23.88
2018-06-23T14:35:42.438Z,24.19
2018-06-23T14:38:11.221Z,25.34
2018-06-23T14:40:40.060Z,24.64
2018-06-23T14:43:08.786Z,24.45
2018-06-23T14:45:37.553Z,24.15
2018-06-23T14:48:06.287Z,24.11
2018-06-23T14:50:35.138Z,24.27
2018-06-23T14:53:03.867Z,25.92
2018-06-23T14:55:32.560Z,27.31
2018-06-23T14:58:01.391Z,27.06
2018-06-23T15:00:30.117Z,26.15
2018-06-23T15:02:58.805Z,26.39
2018-06-23T15:05:27.535Z,26.31
2018-06-23T15:08:00.798Z,25.31
2018-06-23T15:10:40.576Z,24.66
2018-06-23T15:13:17.091Z,25.55
2018-06-23T15:15:45.971Z,24.87
2018-06-23T15:18:14.698Z,23.25
2018-06-23T15:20:43.627Z,22.77
2018-06-23T15:23:12.671Z,23.39
2018-06-23T15:25:41.468Z,25.68
2018-06-23T15:28:10.172Z,26.32
2018-06-23T15:30:38.961Z,27.22
2018-06-23T15:33:07.728Z,28.97
2018-06-23T15:35:36.522Z,28.25
2018-06-23T15:38:05.221Z,26.62
2018-06-23T15:40:33.970Z,25.33
2018-06-23T15:43:02.697Z,24.37
2018-06-23T15:45:31.419Z,24.80
2018-06-23T15:48:00.130Z,27.14
2018-06-23T15:50:28.871Z,26.35
2018-06-23T15:52:57.636Z,27.77
2018-06-23T15:55:26.372Z,29.95
2018-06-23T15:57:55.123Z,28.88
2018-06-23T16:00:23.912Z,30.08
2018-06-23T16:02:52.686Z,29.11
2018-06-23T16:05:21.430Z,28.48
2018-06-23T16:07:50.180Z,29.07
2018-06-23T16:10:23.145Z,27.91
2018-06-23T16:12:52.079Z,28.82
2018-06-23T16:15:20.831Z,26.98
2018-06-23T16:17:49.650Z,28.00
2018-06-23T16:20:18.371Z,29.12
2018-06-23T16:22:47.880Z,28.43
2018-06-23T16:25:16.986Z,26.49
2018-06-23T16:27:45.784Z,27.92
2018-06-23T16:30:14.563Z,28.26
2018-06-23T16:32:43.234Z,28.23
2018-06-23T16:35:12.204Z,28.56
2018-06-23T16:37:40.718Z,27.94
2018-06-23T16:40:09.494Z,27.03
2018-06-23T16:42:38.207Z,24.76
2018-06-23T16:45:07.498Z,24.01
2018-06-23T16:47:36.219Z,22.89
2018-06-23T16:50:05.104Z,21.93
2018-06-23T16:52:33.832Z,21.54
2018-06-23T16:55:02.573Z,21.38
2018-06-23T16:57:31.310Z,20.97
2018-06-23T17:00:00.052Z,20.62
2018-06-23T17:02:28.859Z,19.82
2018-06-23T17:04:57.626Z,19.46
2018-06-23T17:07:26.340Z,19.45
2018-06-23T17:09:55.129Z,19.25
2018-06-23T17:12:23.914Z,19.13
2018-06-23T17:14:52.634Z,19.00
2018-06-23T17:17:21.307Z,18.89
2018-06-23T17:19:50.074Z,18.86
2018-06-23T17:22:18.868Z,18.77
2018-06-23T17:24:47.590Z,18.82
2018-06-23T17:27:16.397Z,18.88
2018-06-23T17:29:45.005Z,18.71
2018-06-23T17:32:14.056Z,18.77
2018-06-23T17:34:42.772Z,18.75
2018-06-23T17:37:11.521Z,18.77
2018-06-23T17:39:40.281Z,18.77
2018-06-23T17:42:09.030Z,18.68
2018-06-23T17:44:37.766Z,18.70
2018-06-23T17:47:06.611Z,18.69
2018-06-23T17:49:35.333Z,18.63
2018-06-23T17:52:04.080Z,18.56
2018-06-23T17:54:32.880Z,18.50
2018-06-23T17:57:01.632Z,18.36
2018-06-23T17:59:30.406Z,18.39
2018-06-23T18:01:59.143Z,18.27
2018-06-23T18:04:27.828Z,18.29
2018-06-23T18:07:02.050Z,18.38
2018-06-23T18:09:30.775Z,18.16
2018-06-23T18:11:59.506Z,18.07
2018-06-23T18:14:28.230Z,18.13
2018-06-23T18:16:57.034Z,18.06
2018-06-23T18:19:25.780Z,17.99
2018-06-23T18:21:54.542Z,17.89
2018-06-23T18:24:23.237Z,17.79
2018-06-23T18:26:51.966Z,17.81
2018-06-23T18:29:20.685Z,17.72
2018-06-23T18:31:49.417Z,17.76
2018-06-23T18:34:18.097Z,17.61
2018-06-23T18:36:46.772Z,17.58
2018-06-23T18:39:15.559Z,17.46
2018-06-23T18:41:44.322Z,17.51
2018-06-23T18:44:13.027Z,17.38
2018-06-23T18:46:41.758Z,17.44
2018-06-23T18:49:10.526Z,17.36
2018-06-23T18:51:39.244Z,17.30
2018-06-23T18:54:08.037Z,17.30
2018-06-23T18:56:36.787Z,17.23
2018-06-23T18:59:06.074Z,17.24
2018-06-23T19:01:34.854Z,17.17
2018-06-23T19:04:03.612Z,17.24
2018-06-23T19:06:32.889Z,17.14
2018-06-23T19:09:01.824Z,17.08
2018-06-23T19:11:30.450Z,17.05
2018-06-23T19:13:59.319Z,17.03
2018-06-23T19:16:28.034Z,16.99
2018-06-23T19:18:56.818Z,16.99
2018-06-23T19:21:25.623Z,17.05
2018-06-23T19:23:54.825Z,17.01
2018-06-23T19:26:23.606Z,16.97
2018-06-23T19:28:52.631Z,16.92
2018-06-23T19:31:21.324Z,16.87
2018-06-23T19:33:50.076Z,16.89
2018-06-23T19:36:18.818Z,16.85
2018-06-23T19:38:47.787Z,16.87
2018-06-23T19:41:23.311Z,16.82
2018-06-23T19:43:52.059Z,16.76
2018-06-23T19:46:20.739Z,16.68
2018-06-23T19:48:49.500Z,16.68
2018-06-23T19:51:18.596Z,16.66
2018-06-23T19:53:47.580Z,16.72
2018-06-23T19:56:16.428Z,16.62
2018-06-23T19:58:45.280Z,16.53
2018-06-23T20:01:14.430Z,16.48
2018-06-23T20:03:43.186Z,16.54
2018-06-23T20:06:11.988Z,16.50
2018-06-23T20:08:40.756Z,16.47
2018-06-23T20:11:09.525Z,16.46
2018-06-23T20:13:38.238Z,16.45
2018-06-23T20:16:07.018Z,16.46
2018-06-23T20:18:36.508Z,16.45
2018-06-23T20:21:05.294Z,16.44
2018-06-23T20:23:33.998Z,16.48
2018-06-23T20:26:02.802Z,16.40
2018-06-23T20:28:31.543Z,16.47
2018-06-23T20:31:00.324Z,16.40
2018-06-23T20:33:29.054Z,16.40
2018-06-23T20:35:57.823Z,16.38
2018-06-23T20:38:26.564Z,16.48
2018-06-23T20:40:55.325Z,16.45
2018-06-23T20:43:24.089Z,16.42
2018-06-23T20:45:52.939Z,16.39
2018-06-23T20:48:21.715Z,16.37
2018-06-23T20:50:50.426Z,16.35
2018-06-23T20:53:19.190Z,16.30
2018-06-23T20:55:47.910Z,16.24
2018-06-23T20:58:16.672Z,16.29
2018-06-23T21:00:45.426Z,16.18
2018-06-23T21:03:14.228Z,16.20
2018-06-23T21:05:42.992Z,16.13
2018-06-23T21:08:11.747Z,16.07
2018-06-23T21:10:43.393Z,16.25
2018-06-23T21:13:12.464Z,16.25
2018-06-23T21:15:41.290Z,16.25
2018-06-23T21:18:11.130Z,16.18
2018-06-23T21:20:39.915Z,16.30
2018-06-23T21:23:08.712Z,16.23
2018-06-23T21:25:37.520Z,16.18
2018-06-23T21:28:06.906Z,16.09
2018-06-23T21:30:35.610Z,16.06
2018-06-23T21:33:04.484Z,16.08
2018-06-23T21:35:33.209Z,16.13
2018-06-23T21:38:02.102Z,16.09
2018-06-23T21:40:30.855Z,16.18
2018-06-23T21:42:59.675Z,16.25
2018-06-23T21:45:29.873Z,16.19
2018-06-23T21:47:58.712Z,16.08
2018-06-23T21:50:28.000Z,16.22
2018-06-23T21:52:56.844Z,16.21
2018-06-23T21:55:30.169Z,16.19
2018-06-23T21:57:59.205Z,16.13
2018-06-23T22:00:33.527Z,16.10
2018-06-23T22:03:04.416Z,16.11
2018-06-23T22:05:36.898Z,16.11
2018-06-23T22:08:06.358Z,16.06
2018-06-23T22:10:41.467Z,16.05
2018-06-23T22:13:10.366Z,16.01
2018-06-23T22:15:39.119Z,16.05
2018-06-23T22:18:07.908Z,16.02
2018-06-23T22:20:36.766Z,16.01
2018-06-23T22:23:06.849Z,16.04
2018-06-23T22:25:35.899Z,16.06
2018-06-23T22:28:05.216Z,16.01
2018-06-23T22:30:35.985Z,16.05
2018-06-23T22:33:04.705Z,16.03
2018-06-23T22:35:33.502Z,16.02
2018-06-23T22:38:06.430Z,16.00
2018-06-23T22:40:35.242Z,15.92
2018-06-23T22:43:04.095Z,15.95
2018-06-23T22:45:33.475Z,15.87
2018-06-23T22:48:02.287Z,15.89
2018-06-23T22:50:31.105Z,15.84
2018-06-23T22:53:00.239Z,15.74
2018-06-23T22:55:28.994Z,15.80
2018-06-23T22:57:58.701Z,15.76
2018-06-23T23:00:27.940Z,15.64
2018-06-23T23:02:56.657Z,15.67
2018-06-23T23:05:25.411Z,15.56
2018-06-23T23:07:54.227Z,15.57
2018-06-23T23:10:23.281Z,15.47
2018-06-23T23:12:52.065Z,15.30
2018-06-23T23:15:20.851Z,15.11
2018-06-23T23:17:49.643Z,15.07
2018-06-23T23:20:18.471Z,15.07
2018-06-23T23:22:47.142Z,15.12
2018-06-23T23:25:15.898Z,15.07
2018-06-23T23:27:44.728Z,15.01
2018-06-23T23:30:13.590Z,15.01
2018-06-23T23:32:42.340Z,14.86
2018-06-23T23:35:11.087Z,14.81
2018-06-23T23:37:39.870Z,14.76
2018-06-23T23:40:09.245Z,14.71
2018-06-23T23:42:38.051Z,14.65
2018-06-23T23:45:06.863Z,14.66
2018-06-23T23:47:35.654Z,14.71
2018-06-23T23:50:04.362Z,14.75
2018-06-23T23:52:33.122Z,14.64
2018-06-23T23:55:01.881Z,14.58
2018-06-23T23:57:31.578Z,14.52
